Time;durP1;ratioP1;P1;durP2;ratioP2;P2;SDS_P1;SDS_P2;PMS_P1;PMS_P2;Temp;Humidity;BMP_temperature;BMP_pressure;BME280_temperature;BME280_humidity;BME280_pressure;Samples;Min_cycle;Max_cycle;Signal;HPM_P1;HPM_P2
2023/11/27 00:00:13;;;;;;;;;;;19.80;64.10;;;;;;5019984;28;1447;-69
2023/11/27 00:02:39;;;;;;;;;;;19.80;64.00;;;;;;5000403;28;1970;-69
2023/11/27 00:05:05;;;;;;;;;;;19.80;64.00;;;;;;5019573;28;1703;-69
2023/11/27 00:07:31;;;;;;;;;;;19.80;64.00;;;;;;5020007;28;1281;-69
2023/11/27 00:09:56;;;;;;;;;;;19.80;64.00;;;;;;5019800;28;1319;-69
2023/11/27 00:12:22;;;;;;;;;;;19.80;64.00;;;;;;5020564;28;1200;-69
2023/11/27 00:14:47;;;;;;;;;;;19.80;64.00;;;;;;5023174;28;1374;-71
2023/11/27 00:17:13;;;;;;;;;;;19.80;64.00;;;;;;5020736;28;1469;-70
2023/11/27 00:19:38;;;;;;;;;;;19.80;64.10;;;;;;5021325;28;1485;-70
2023/11/27 00:22:04;;;;;;;;;;;19.80;64.10;;;;;;5021829;28;1470;-70
2023/11/27 00:24:29;;;;;;;;;;;19.80;64.10;;;;;;5021780;28;1930;-70
2023/11/27 00:26:55;;;;;;;;;;;19.80;64.10;;;;;;5021380;28;1497;-70
2023/11/27 00:29:20;;;;;;;;;;;19.80;64.10;;;;;;5001927;28;1460;-70
2023/11/27 00:31:46;;;;;;;;;;;19.80;64.10;;;;;;5020392;28;1469;-70
2023/11/27 00:34:11;;;;;;;;;;;19.80;64.10;;;;;;5021348;28;1692;-70
2023/11/27 00:36:38;;;;;;;;;;;19.80;64.10;;;;;;5025494;28;1399;-69
2023/11/27 00:39:07;;;;;;;;;;;19.80;64.10;;;;;;5023701;28;1546;-70
2023/11/27 00:41:32;;;;;;;;;;;19.80;64.10;;;;;;5026531;28;1371;-69
2023/11/27 00:43:58;;;;;;;;;;;19.80;64.10;;;;;;5026815;28;1902;-72
2023/11/27 00:46:23;;;;;;;;;;;19.70;64.10;;;;;;5026124;28;1390;-70
2023/11/27 00:48:48;;;;;;;;;;;19.80;64.20;;;;;;5023943;28;1451;-69
2023/11/27 00:51:14;;;;;;;;;;;19.80;64.10;;;;;;5025364;28;1451;-72
2023/11/27 00:53:40;;;;;;;;;;;19.70;64.00;;;;;;5022333;28;1419;-70
2023/11/27 00:56:06;;;;;;;;;;;19.70;64.00;;;;;;5025913;28;1280;-70
2023/11/27 00:58:32;;;;;;;;;;;19.70;64.00;;;;;;5026801;28;1275;-70
2023/11/27 01:00:57;;;;;;;;;;;19.70;64.00;;;;;;5012331;28;1363;-70
2023/11/27 01:03:22;;;;;;;;;;;19.80;64.10;;;;;;5025639;28;1938;-69
2023/11/27 01:05:48;;;;;;;;;;;19.80;64.10;;;;;;5023294;28;1525;-70
2023/11/27 01:08:14;;;;;;;;;;;19.70;64.10;;;;;;5025836;28;1468;-70
2023/11/27 01:10:40;;;;;;;;;;;19.70;64.10;;;;;;5008069;28;1281;-72
2023/11/27 01:13:05;;;;;;;;;;;19.70;64.10;;;;;;5006547;28;1457;-70
2023/11/27 01:15:31;;;;;;;;;;;19.70;64.10;;;;;;5025979;28;1476;-70
2023/11/27 01:17:56;;;;;;;;;;;19.70;64.10;;;;;;5025787;28;1720;-73
2023/11/27 01:20:22;;;;;;;;;;;19.70;64.10;;;;;;5023077;28;1408;-72
2023/11/27 01:22:47;;;;;;;;;;;19.70;64.20;;;;;;5026114;28;1902;-71
2023/11/27 01:25:13;;;;;;;;;;;19.70;64.10;;;;;;5023418;28;1464;-72
2023/11/27 01:27:38;;;;;;;;;;;19.70;64.20;;;;;;5021808;28;1339;-70
2023/11/27 01:30:04;;;;;;;;;;;19.70;64.20;;;;;;5023455;28;1377;-71
2023/11/27 01:32:30;;;;;;;;;;;19.70;64.20;;;;;;5005566;28;1408;-70
2023/11/27 01:34:56;;;;;;;;;;;19.70;64.10;;;;;;5023842;28;1592;-70
2023/11/27 01:37:22;;;;;;;;;;;19.70;64.20;;;;;;5023306;28;1048;-70
2023/11/27 01:39:47;;;;;;;;;;;19.70;64.20;;;;;;5026096;28;1331;-70
2023/11/27 01:42:13;;;;;;;;;;;19.70;64.20;;;;;;5024035;28;1447;-71
2023/11/27 01:44:38;;;;;;;;;;;19.70;64.20;;;;;;5012659;28;1907;-70
2023/11/27 01:47:04;;;;;;;;;;;19.70;64.20;;;;;;5009706;28;1293;-71
2023/11/27 01:49:33;;;;;;;;;;;19.70;64.20;;;;;;5022391;28;1027;-71
2023/11/27 01:51:58;;;;;;;;;;;19.70;64.30;;;;;;5011700;28;1553;-71
2023/11/27 01:54:24;;;;;;;;;;;19.70;64.20;;;;;;5011778;28;1270;-71
2023/11/27 01:56:49;;;;;;;;;;;19.70;64.20;;;;;;5023749;28;1596;-70
2023/11/27 01:59:15;;;;;;;;;;;19.70;64.20;;;;;;5001266;28;1374;-70
2023/11/27 02:01:42;;;;;;;;;;;19.70;64.30;;;;;;5020019;28;1499;-70
2023/11/27 02:04:07;;;;;;;;;;;19.70;64.30;;;;;;5022100;28;1973;-69
2023/11/27 02:06:33;;;;;;;;;;;19.70;64.30;;;;;;5009943;28;1403;-69
2023/11/27 02:08:59;;;;;;;;;;;19.70;64.30;;;;;;5022201;28;1502;-69
2023/11/27 02:11:27;;;;;;;;;;;19.70;64.30;;;;;;5006900;28;1475;-69
2023/11/27 02:13:52;;;;;;;;;;;19.70;64.40;;;;;;5023993;28;1445;-69
2023/11/27 02:16:18;;;;;;;;;;;19.70;64.40;;;;;;5003250;28;1359;-68
2023/11/27 02:18:43;;;;;;;;;;;19.70;64.40;;;;;;5023455;28;1458;-69
2023/11/27 02:21:09;;;;;;;;;;;19.70;64.40;;;;;;5019735;28;1513;-68
2023/11/27 02:23:35;;;;;;;;;;;19.60;64.30;;;;;;5021957;28;1994;-69
2023/11/27 02:26:00;;;;;;;;;;;19.60;64.30;;;;;;5023291;28;1474;-70
2023/11/27 02:28:26;;;;;;;;;;;19.70;64.40;;;;;;5022196;28;1387;-70
2023/11/27 02:30:52;;;;;;;;;;;19.70;64.40;;;;;;5026417;28;1717;-69
2023/11/27 02:33:17;;;;;;;;;;;19.70;64.40;;;;;;5022555;28;1440;-69
2023/11/27 02:35:43;;;;;;;;;;;19.70;64.40;;;;;;5021685;28;1580;-69
2023/11/27 02:38:08;;;;;;;;;;;19.70;64.40;;;;;;5019626;28;1467;-69
2023/11/27 02:40:34;;;;;;;;;;;19.60;64.40;;;;;;5021433;28;1379;-70
2023/11/27 02:42:59;;;;;;;;;;;19.60;64.40;;;;;;5012508;28;1935;-69
2023/11/27 02:45:25;;;;;;;;;;;19.60;64.40;;;;;;5024066;28;1347;-70
2023/11/27 02:47:51;;;;;;;;;;;19.60;64.40;;;;;;5024771;28;1402;-70
2023/11/27 02:50:18;;;;;;;;;;;19.60;64.40;;;;;;5023098;28;1255;-71
2023/11/27 02:52:45;;;;;;;;;;;19.60;64.40;;;;;;5020541;28;1519;-70
2023/11/27 02:55:11;;;;;;;;;;;19.60;64.40;;;;;;5022220;28;1481;-70
2023/11/27 02:57:37;;;;;;;;;;;19.60;64.40;;;;;;5021429;28;1572;-71
2023/11/27 03:00:05;;;;;;;;;;;19.60;64.40;;;;;;5024027;28;1465;-71
2023/11/27 03:02:32;;;;;;;;;;;19.60;64.50;;;;;;5003798;28;1918;-70
2023/11/27 03:04:57;;;;;;;;;;;19.60;64.40;;;;;;5021211;28;1438;-70
2023/11/27 03:07:23;;;;;;;;;;;19.60;64.40;;;;;;5011044;28;1490;-70
2023/11/27 03:09:48;;;;;;;;;;;19.60;64.50;;;;;;5021243;28;1613;-70
2023/11/27 03:12:14;;;;;;;;;;;19.60;64.50;;;;;;5023398;28;1631;-70
2023/11/27 03:14:39;;;;;;;;;;;19.60;64.50;;;;;;5008865;28;1472;-70
2023/11/27 03:17:05;;;;;;;;;;;19.60;64.50;;;;;;5022210;28;1468;-71
2023/11/27 03:19:30;;;;;;;;;;;19.60;64.50;;;;;;5018866;28;1447;-70
2023/11/27 03:21:56;;;;;;;;;;;19.60;64.50;;;;;;5024082;28;1390;-69
2023/11/27 03:24:21;;;;;;;;;;;19.60;64.60;;;;;;5024533;28;1906;-69
2023/11/27 03:26:47;;;;;;;;;;;19.60;64.60;;;;;;5024342;28;1452;-69
2023/11/27 03:29:13;;;;;;;;;;;19.60;64.60;;;;;;5005251;28;1334;-69
2023/11/27 03:31:38;;;;;;;;;;;19.60;64.60;;;;;;5008770;28;1421;-70
2023/11/27 03:34:04;;;;;;;;;;;19.60;64.60;;;;;;5020294;28;1369;-69
2023/11/27 03:36:29;;;;;;;;;;;19.60;64.60;;;;;;5018138;28;1562;-70
2023/11/27 03:38:55;;;;;;;;;;;19.60;64.60;;;;;;5021048;28;1505;-70
2023/11/27 03:41:21;;;;;;;;;;;19.60;64.50;;;;;;5021107;28;1458;-70
2023/11/27 03:43:47;;;;;;;;;;;19.60;64.50;;;;;;5020027;28;1953;-69
2023/11/27 03:46:12;;;;;;;;;;;19.60;64.50;;;;;;5020363;28;1503;-71
2023/11/27 03:48:38;;;;;;;;;;;19.60;64.50;;;;;;5008845;28;1396;-70
2023/11/27 03:51:04;;;;;;;;;;;19.60;64.50;;;;;;5018866;28;1449;-71
2023/11/27 03:53:30;;;;;;;;;;;19.60;64.60;;;;;;5021034;28;1689;-70
2023/11/27 03:55:55;;;;;;;;;;;19.60;64.50;;;;;;5018216;28;1367;-70
2023/11/27 03:58:24;;;;;;;;;;;19.60;64.50;;;;;;5000902;28;1546;-70
2023/11/27 04:00:49;;;;;;;;;;;19.60;64.40;;;;;;5022355;28;1477;-70
2023/11/27 04:03:15;;;;;;;;;;;19.60;64.40;;;;;;5020887;28;1906;-70
2023/11/27 04:05:40;;;;;;;;;;;19.60;64.40;;;;;;5018463;28;1276;-70
2023/11/27 04:08:07;;;;;;;;;;;19.60;64.40;;;;;;5020643;28;1478;-70
2023/11/27 04:10:32;;;;;;;;;;;19.60;64.40;;;;;;5018328;28;1420;-70
2023/11/27 04:12:58;;;;;;;;;;;19.60;64.40;;;;;;5021941;28;1446;-70
2023/11/27 04:15:23;;;;;;;;;;;19.60;64.40;;;;;;5022991;28;1734;-71
2023/11/27 04:17:49;;;;;;;;;;;19.60;64.40;;;;;;5019047;28;1589;-70
2023/11/27 04:20:16;;;;;;;;;;;19.60;64.40;;;;;;4993902;28;1593;-70
2023/11/27 04:22:46;;;;;;;;;;;19.60;64.40;;;;;;5010152;28;1966;-70
2023/11/27 04:25:11;;;;;;;;;;;19.60;64.40;;;;;;5008292;28;1482;-70
2023/11/27 04:27:37;;;;;;;;;;;19.60;64.40;;;;;;5021616;28;1551;-71
2023/11/27 04:30:05;;;;;;;;;;;19.60;64.40;;;;;;5021477;28;1415;-70
2023/11/27 04:32:30;;;;;;;;;;;19.60;64.40;;;;;;5023009;28;1246;-70
2023/11/27 04:34:55;;;;;;;;;;;19.60;64.40;;;;;;5022543;28;1405;-72
2023/11/27 04:37:21;;;;;;;;;;;19.60;64.40;;;;;;5022618;28;1547;-71
2023/11/27 04:39:46;;;;;;;;;;;19.60;64.40;;;;;;5008572;28;1221;-70
2023/11/27 04:42:12;;;;;;;;;;;19.60;64.40;;;;;;5008000;28;1320;-70
2023/11/27 04:44:39;;;;;;;;;;;19.60;64.40;;;;;;5009304;28;1965;-70
2023/11/27 04:47:05;;;;;;;;;;;19.60;64.40;;;;;;5019736;28;1629;-71
2023/11/27 04:49:31;;;;;;;;;;;19.60;65.10;;;;;;5023292;28;1719;-70
2023/11/27 04:51:56;;;;;;;;;;;19.60;64.40;;;;;;5020540;28;1340;-72
2023/11/27 04:54:22;;;;;;;;;;;19.60;64.40;;;;;;5020863;28;1720;-70
2023/11/27 04:56:47;;;;;;;;;;;19.60;64.40;;;;;;5019606;28;1620;-70
2023/11/27 04:59:13;;;;;;;;;;;19.60;64.40;;;;;;5020873;28;1580;-71
2023/11/27 05:01:39;;;;;;;;;;;19.60;64.40;;;;;;5008836;28;1419;-71
2023/11/27 05:04:05;;;;;;;;;;;19.60;64.50;;;;;;5019339;28;1978;-71
2023/11/27 05:06:30;;;;;;;;;;;19.60;64.50;;;;;;5021527;28;1260;-71
2023/11/27 05:08:56;;;;;;;;;;;19.60;64.50;;;;;;5021410;28;1503;-70
2023/11/27 05:11:21;;;;;;;;;;;19.60;64.50;;;;;;5021683;28;1143;-71
2023/11/27 05:13:47;;;;;;;;;;;19.60;64.50;;;;;;5007681;28;1269;-70
2023/11/27 05:16:13;;;;;;;;;;;19.50;64.50;;;;;;5009394;28;1277;-70
2023/11/27 05:18:38;;;;;;;;;;;19.50;64.50;;;;;;5021965;28;1334;-71
2023/11/27 05:21:04;;;;;;;;;;;19.60;64.50;;;;;;5022339;28;1299;-71
2023/11/27 05:23:29;;;;;;;;;;;19.60;64.50;;;;;;5024079;28;1906;-72
2023/11/27 05:25:54;;;;;;;;;;;19.60;64.50;;;;;;5025028;28;1379;-70
2023/11/27 05:28:20;;;;;;;;;;;19.60;64.50;;;;;;5025688;28;1302;-70
2023/11/27 05:30:45;;;;;;;;;;;19.60;64.50;;;;;;5020251;28;1328;-71
2023/11/27 05:33:11;;;;;;;;;;;19.60;64.50;;;;;;5012578;28;1253;-70
2023/11/27 05:35:36;;;;;;;;;;;19.60;64.50;;;;;;5024297;28;1548;-70
2023/11/27 05:38:02;;;;;;;;;;;19.60;64.50;;;;;;5024691;28;1387;-70
2023/11/27 05:40:28;;;;;;;;;;;19.50;64.50;;;;;;5011556;28;1387;-70
2023/11/27 05:42:54;;;;;;;;;;;19.60;64.50;;;;;;5011911;28;1910;-70
2023/11/27 05:45:20;;;;;;;;;;;19.50;64.50;;;;;;5012361;28;1379;-70
2023/11/27 05:47:45;;;;;;;;;;;19.50;64.50;;;;;;5023044;28;1497;-70
2023/11/27 05:50:14;;;;;;;;;;;19.50;64.50;;;;;;4995138;28;1409;-70
2023/11/27 05:52:40;;;;;;;;;;;19.50;64.50;;;;;;5021502;28;1260;-70
2023/11/27 05:55:05;;;;;;;;;;;19.50;64.60;;;;;;5011306;28;1642;-70
2023/11/27 05:57:34;;;;;;;;;;;19.50;64.60;;;;;;5002983;28;1884;-70
2023/11/27 06:00:00;;;;;;;;;;;19.50;64.60;;;;;;5025098;28;1499;-70
2023/11/27 06:02:26;;;;;;;;;;;19.50;64.60;;;;;;5024000;28;1450;-70
2023/11/27 06:04:51;;;;;;;;;;;19.50;64.60;;;;;;5025173;28;2005;-70
2023/11/27 06:07:17;;;;;;;;;;;19.50;64.60;;;;;;5022724;28;1465;-70
2023/11/27 06:09:42;;;;;;;;;;;19.50;64.70;;;;;;5020889;28;1491;-70
2023/11/27 06:12:10;;;;;;;;;;;19.50;64.70;;;;;;4993373;28;1396;-69
2023/11/27 06:14:36;;;;;;;;;;;19.60;64.70;;;;;;5021213;28;1315;-70
2023/11/27 06:17:01;;;;;;;;;;;19.70;64.70;;;;;;5023229;28;1245;-70
2023/11/27 06:19:27;;;;;;;;;;;19.70;64.60;;;;;;5024831;28;1810;-69
2023/11/27 06:21:52;;;;;;;;;;;19.90;64.50;;;;;;5025897;28;1324;-70
2023/11/27 06:24:18;;;;;;;;;;;20.00;64.10;;;;;;5023587;28;1926;-70
2023/11/27 06:26:43;;;;;;;;;;;20.10;63.80;;;;;;5022682;28;1254;-70
2023/11/27 06:29:08;;;;;;;;;;;20.20;63.50;;;;;;5024432;28;1349;-69
2023/11/27 06:31:35;;;;;;;;;;;20.30;63.30;;;;;;5021759;28;1471;-70
2023/11/27 06:34:00;;;;;;;;;;;20.40;63.00;;;;;;5003975;28;1277;-69
2023/11/27 06:36:26;;;;;;;;;;;20.50;61.80;;;;;;5020769;28;1622;-70
2023/11/27 06:38:51;;;;;;;;;;;20.50;59.60;;;;;;5021132;28;1198;-70
2023/11/27 06:41:17;;;;;;;;;;;20.50;59.10;;;;;;5022038;28;1331;-70
2023/11/27 06:43:42;;;;;;;;;;;20.60;59.00;;;;;;5005513;28;1898;-70
2023/11/27 06:46:14;;;;;;;;;;;20.60;58.90;;;;;;5024656;28;1360;-70
2023/11/27 06:48:39;;;;;;;;;;;20.70;58.90;;;;;;5021765;28;1391;-69
2023/11/27 06:51:05;;;;;;;;;;;20.80;58.80;;;;;;5003143;28;1316;-69
2023/11/27 06:53:31;;;;;;;;;;;20.80;58.70;;;;;;5023285;28;1382;-70
2023/11/27 06:55:56;;;;;;;;;;;21.00;58.70;;;;;;5018935;28;1789;-72
2023/11/27 06:58:21;;;;;;;;;;;21.00;58.60;;;;;;5018867;28;1269;-69
2023/11/27 07:00:47;;;;;;;;;;;21.10;58.50;;;;;;5021601;28;1360;-71
2023/11/27 07:03:12;;;;;;;;;;;21.20;58.50;;;;;;5026367;28;1967;-72
2023/11/27 07:05:38;;;;;;;;;;;21.20;58.30;;;;;;5022979;28;1359;-72
2023/11/27 07:08:03;;;;;;;;;;;21.30;58.30;;;;;;5020334;28;1294;-73
2023/11/27 07:10:29;;;;;;;;;;;21.40;58.20;;;;;;5022192;28;1335;-72
2023/11/27 07:12:55;;;;;;;;;;;21.50;58.20;;;;;;5011533;28;1270;-72
2023/11/27 07:15:20;;;;;;;;;;;21.50;58.10;;;;;;5021103;28;1441;-72
2023/11/27 07:17:46;;;;;;;;;;;21.50;58.10;;;;;;5020662;28;1413;-73
2023/11/27 07:20:18;;;;;;;;;;;21.60;58.10;;;;;;5003751;28;875;-73
2023/11/27 07:22:45;;;;;;;;;;;21.60;58.10;;;;;;5018444;28;1946;-71
2023/11/27 07:25:12;;;;;;;;;;;21.60;58.10;;;;;;5023029;28;1466;-71
2023/11/27 07:27:37;;;;;;;;;;;21.60;58.10;;;;;;5020375;28;1572;-71
2023/11/27 07:30:04;;;;;;;;;;;21.60;58.10;;;;;;5011405;28;1446;-72
2023/11/27 07:32:30;;;;;;;;;;;21.60;58.20;;;;;;5023276;28;1526;-72
2023/11/27 07:34:55;;;;;;;;;;;21.60;58.30;;;;;;5021911;28;1960;-70
2023/11/27 07:37:21;;;;;;;;;;;21.60;58.30;;;;;;5023337;28;1966;-73
2023/11/27 07:39:47;;;;;;;;;;;21.60;58.30;;;;;;5000088;28;1322;-72
2023/11/27 07:42:14;;;;;;;;;;;21.60;58.30;;;;;;5020126;28;1356;-73
2023/11/27 07:44:42;;;;;;;;;;;21.60;58.30;;;;;;5003767;28;1961;-73
2023/11/27 07:47:07;;;;;;;;;;;21.60;58.40;;;;;;5021705;28;1336;-72
2023/11/27 07:49:33;;;;;;;;;;;21.60;58.50;;;;;;5021601;28;1668;-71
2023/11/27 07:51:58;;;;;;;;;;;21.60;58.50;;;;;;5021821;28;1269;-71
2023/11/27 07:54:24;;;;;;;;;;;21.50;58.50;;;;;;5018706;28;1331;-71
2023/11/27 07:56:53;;;;;;;;;;;21.50;58.60;;;;;;5023247;28;1381;-71
2023/11/27 07:59:18;;;;;;;;;;;21.50;58.60;;;;;;5019271;28;1397;-71
2023/11/27 08:01:45;;;;;;;;;;;21.40;58.60;;;;;;5023423;28;1288;-71
2023/11/27 08:04:11;;;;;;;;;;;21.40;58.80;;;;;;5021937;28;1926;-71
2023/11/27 08:06:37;;;;;;;;;;;21.40;58.80;;;;;;5022931;28;1576;-71
2023/11/27 08:09:04;;;;;;;;;;;21.40;58.90;;;;;;5023145;28;1387;-72
2023/11/27 08:11:30;;;;;;;;;;;21.40;59.00;;;;;;5019352;28;1748;-70
2023/11/27 08:13:56;;;;;;;;;;;21.40;59.00;;;;;;5019681;28;1503;-72
2023/11/27 08:16:21;;;;;;;;;;;21.30;59.00;;;;;;5020606;28;1451;-72
2023/11/27 08:18:47;;;;;;;;;;;21.30;59.10;;;;;;5022945;28;1454;-71
2023/11/27 08:21:14;;;;;;;;;;;21.30;59.20;;;;;;5019027;28;1336;-72
2023/11/27 08:23:42;;;;;;;;;;;21.30;59.20;;;;;;5002734;28;1969;-72
2023/11/27 08:26:07;;;;;;;;;;;21.30;59.30;;;;;;5021085;28;1382;-71
2023/11/27 08:28:33;;;;;;;;;;;21.20;59.30;;;;;;5009039;28;1672;-71
2023/11/27 08:30:58;;;;;;;;;;;21.20;59.40;;;;;;5020514;28;1283;-70
2023/11/27 08:33:25;;;;;;;;;;;21.20;59.50;;;;;;5019158;28;1431;-71
2023/11/27 08:35:51;;;;;;;;;;;21.20;59.50;;;;;;5020545;28;1315;-71
2023/11/27 08:38:17;;;;;;;;;;;21.20;59.70;;;;;;5019188;28;1254;-72
2023/11/27 08:40:42;;;;;;;;;;;21.10;59.70;;;;;;5025671;28;1571;-71
2023/11/27 08:43:08;;;;;;;;;;;21.10;59.70;;;;;;5020877;28;1903;-72
2023/11/27 08:45:34;;;;;;;;;;;21.10;59.80;;;;;;5005582;28;1451;-72
2023/11/27 08:48:00;;;;;;;;;;;21.10;59.80;;;;;;5020333;28;1218;-71
2023/11/27 08:50:27;;;;;;;;;;;21.10;59.80;;;;;;5001646;28;1341;-70
2023/11/27 08:52:57;;;;;;;;;;;21.10;59.90;;;;;;5009365;28;1156;-70
2023/11/27 08:55:29;;;;;;;;;;;21.10;59.90;;;;;;5021524;28;1502;-70
2023/11/27 08:57:55;;;;;;;;;;;21.10;59.90;;;;;;5028300;28;1275;-70
2023/11/27 09:00:21;;;;;;;;;;;21.10;59.90;;;;;;5026662;28;1337;-70
2023/11/27 09:02:48;;;;;;;;;;;21.10;60.00;;;;;;5005958;28;1906;-70
2023/11/27 09:05:13;;;;;;;;;;;21.10;60.70;;;;;;5029319;28;1403;-71
2023/11/27 09:07:39;;;;;;;;;;;21.10;60.00;;;;;;5004451;28;1409;-71
2023/11/27 09:10:06;;;;;;;;;;;21.10;60.00;;;;;;5023734;28;1431;-71
2023/11/27 09:12:31;;;;;;;;;;;21.10;60.00;;;;;;5023103;28;1666;-72
2023/11/27 09:14:57;;;;;;;;;;;21.10;60.00;;;;;;5011820;28;1433;-72
2023/11/27 09:17:22;;;;;;;;;;;21.10;60.00;;;;;;5021441;28;1387;-71
2023/11/27 09:19:48;;;;;;;;;;;21.10;60.00;;;;;;5006953;28;1391;-72
2023/11/27 09:22:14;;;;;;;;;;;21.10;60.00;;;;;;5008390;28;1375;-71
2023/11/27 09:24:40;;;;;;;;;;;21.10;60.00;;;;;;5022746;28;1906;-71
2023/11/27 09:27:06;;;;;;;;;;;21.10;60.00;;;;;;5023691;28;1607;-72
2023/11/27 09:29:32;;;;;;;;;;;21.10;60.00;;;;;;5022413;28;1215;-71
2023/11/27 09:31:59;;;;;;;;;;;21.10;60.00;;;;;;5006458;28;1409;-71
2023/11/27 09:34:27;;;;;;;;;;;21.10;60.00;;;;;;5024335;28;1462;-71
2023/11/27 09:36:52;;;;;;;;;;;21.10;60.00;;;;;;5024701;28;1250;-72
2023/11/27 09:39:18;;;;;;;;;;;21.10;60.00;;;;;;5027940;28;1322;-71
2023/11/27 09:41:44;;;;;;;;;;;21.10;60.80;;;;;;5024056;28;1229;-71
2023/11/27 09:44:10;;;;;;;;;;;21.10;60.00;;;;;;5023633;28;1914;-71
2023/11/27 09:46:36;;;;;;;;;;;21.10;60.00;;;;;;5012477;28;1480;-71
2023/11/27 09:49:04;;;;;;;;;;;21.10;60.00;;;;;;5022507;28;1329;-71
2023/11/27 09:51:31;;;;;;;;;;;21.10;60.00;;;;;;5006053;28;1491;-72
2023/11/27 09:53:56;;;;;;;;;;;21.10;60.00;;;;;;5012669;28;1420;-72
2023/11/27 09:56:31;;;;;;;;;;;21.10;60.00;;;;;;5011051;28;1292;-72
2023/11/27 09:58:59;;;;;;;;;;;21.10;60.00;;;;;;5011109;28;1490;-73
2023/11/27 10:01:27;;;;;;;;;;;21.20;60.00;;;;;;5004341;28;1379;-73
2023/11/27 10:03:57;;;;;;;;;;;21.20;60.00;;;;;;5012218;28;1910;-73
2023/11/27 10:06:24;;;;;;;;;;;21.20;59.90;;;;;;5025269;28;1312;-73
2023/11/27 10:09:04;;;;;;;;;;;21.20;59.90;;;;;;5006477;28;1120;-73
2023/11/27 10:11:33;;;;;;;;;;;21.20;59.80;;;;;;5020704;28;1243;-73
2023/11/27 10:14:04;;;;;;;;;;;21.30;59.80;;;;;;5021658;28;1080;-73
2023/11/27 10:16:31;;;;;;;;;;;21.30;59.80;;;;;;5019986;28;1403;-73
2023/11/27 10:19:02;;;;;;;;;;;21.30;59.80;;;;;;5021943;28;1269;-73
2023/11/27 10:21:27;;;;;;;;;;;21.30;59.80;;;;;;5008759;28;1309;-71
2023/11/27 10:23:53;;;;;;;;;;;21.30;59.80;;;;;;5018916;28;1984;-71
2023/11/27 10:26:21;;;;;;;;;;;21.30;59.80;;;;;;5020847;28;1335;-67
2023/11/27 10:28:48;;;;;;;;;;;21.30;59.80;;;;;;5023212;28;1060;-72
2023/11/27 10:31:14;;;;;;;;;;;21.30;59.80;;;;;;5021425;28;1250;-70
2023/11/27 10:33:40;;;;;;;;;;;21.30;59.80;;;;;;5024259;28;1469;-70
2023/11/27 10:36:06;;;;;;;;;;;21.30;59.70;;;;;;5020805;28;1359;-69
2023/11/27 10:38:33;;;;;;;;;;;21.30;59.80;;;;;;5002269;28;1337;-70
2023/11/27 10:41:00;;;;;;;;;;;21.30;59.80;;;;;;5024643;28;1353;-68
2023/11/27 10:43:26;;;;;;;;;;;21.30;59.80;;;;;;5005181;28;1879;-68
2023/11/27 10:45:51;;;;;;;;;;;21.30;59.80;;;;;;5019838;28;1523;-68
2023/11/27 10:48:17;;;;;;;;;;;21.30;59.80;;;;;;5009845;28;1560;-75
2023/11/27 10:50:45;;;;;;;;;;;21.30;59.90;;;;;;4994022;28;1512;-74
2023/11/27 10:53:11;;;;;;;;;;;21.20;59.80;;;;;;5006071;28;1351;-74
2023/11/27 10:55:36;;;;;;;;;;;21.30;60.60;;;;;;5004744;28;1692;-73
2023/11/27 10:58:03;;;;;;;;;;;21.30;59.90;;;;;;5010567;28;1262;-74
2023/11/27 11:00:39;;;;;;;;;;;21.30;59.80;;;;;;5019331;28;1379;-74
2023/11/27 11:03:14;;;;;;;;;;;21.30;59.80;;;;;;5012945;28;1914;-74
2023/11/27 11:05:49;;;;;;;;;;;21.30;59.80;;;;;;5001509;28;1429;-74
2023/11/27 11:08:15;;;;;;;;;;;21.30;59.80;;;;;;5016480;28;1327;-71
2023/11/27 11:10:41;;;;;;;;;;;21.30;59.80;;;;;;5021100;28;1335;-71
2023/11/27 11:13:11;;;;;;;;;;;21.30;59.70;;;;;;5004720;28;1274;-71
2023/11/27 11:15:41;;;;;;;;;;;21.30;59.70;;;;;;5008484;28;1395;-71
2023/11/27 11:18:26;;;;;;;;;;;21.30;59.70;;;;;;5008173;28;1352;-70
2023/11/27 11:20:55;;;;;;;;;;;21.30;59.70;;;;;;5004112;28;1361;-70
2023/11/27 11:23:35;;;;;;;;;;;21.30;59.70;;;;;;5022466;28;1961;-69
2023/11/27 11:26:05;;;;;;;;;;;21.40;59.70;;;;;;5021720;28;1470;-71
2023/11/27 11:28:33;;;;;;;;;;;21.30;59.60;;;;;;5018140;28;1266;-70
2023/11/27 11:31:09;;;;;;;;;;;21.40;59.60;;;;;;5002488;28;1285;-70
2023/11/27 11:33:34;;;;;;;;;;;21.40;59.60;;;;;;5005579;28;1529;-71
2023/11/27 11:36:00;;;;;;;;;;;21.40;59.60;;;;;;5023169;28;1367;-70
2023/11/27 11:38:25;;;;;;;;;;;21.30;59.60;;;;;;5022956;28;1417;-71
2023/11/27 11:40:51;;;;;;;;;;;21.30;59.60;;;;;;5010410;28;1199;-71
2023/11/27 11:43:17;;;;;;;;;;;21.30;59.60;;;;;;5010340;28;1906;-71
2023/11/27 11:45:43;;;;;;;;;;;21.30;59.70;;;;;;5009090;28;2143;-70
2023/11/27 11:48:12;;;;;;;;;;;21.30;59.70;;;;;;5004569;28;1320;-70
2023/11/27 11:50:41;;;;;;;;;;;21.30;59.70;;;;;;5020199;28;1269;-70
2023/11/27 11:53:21;;;;;;;;;;;21.30;59.70;;;;;;5009106;28;1380;-70
2023/11/27 12:04:56;;;;;;;;;;;21.40;59.60;;;;;;5020961;28;1934;-70
2023/11/27 12:07:23;;;;;;;;;;;21.40;59.60;;;;;;5008570;28;1458;-70
2023/11/27 12:09:49;;;;;;;;;;;21.40;59.50;;;;;;5003854;28;1385;-70
2023/11/27 12:12:15;;;;;;;;;;;21.40;59.50;;;;;;5010180;28;1241;-70
2023/11/27 12:14:41;;;;;;;;;;;21.50;59.60;;;;;;5002588;28;1406;-70
2023/11/27 12:17:07;;;;;;;;;;;21.50;59.50;;;;;;5022105;28;1456;-70
2023/11/27 12:19:33;;;;;;;;;;;21.50;59.50;;;;;;5002525;28;1437;-70
2023/11/27 12:21:59;;;;;;;;;;;21.50;59.50;;;;;;5004057;28;1420;-70
2023/11/27 12:24:24;;;;;;;;;;;21.50;59.50;;;;;;5020515;28;1977;-70
2023/11/27 12:26:53;;;;;;;;;;;21.50;59.50;;;;;;5022237;28;1981;-71
2023/11/27 12:29:22;;;;;;;;;;;21.40;59.40;;;;;;5021027;28;1292;-70
2023/11/27 12:31:50;;;;;;;;;;;21.40;59.50;;;;;;5027192;28;1453;-70
2023/11/27 12:34:20;;;;;;;;;;;21.40;59.50;;;;;;5023693;28;1502;-70
2023/11/27 12:36:46;;;;;;;;;;;21.40;59.50;;;;;;5024309;28;1601;-71
2023/11/27 12:39:25;;;;;;;;;;;21.40;59.60;;;;;;5025943;28;1437;-70
2023/11/27 12:41:53;;;;;;;;;;;21.40;59.60;;;;;;5028813;28;1372;-70
2023/11/27 12:44:19;;;;;;;;;;;21.40;59.70;;;;;;5006286;28;1898;-71
2023/11/27 12:46:48;;;;;;;;;;;21.30;59.70;;;;;;5023083;28;1847;-71
2023/11/27 12:49:18;;;;;;;;;;;21.30;59.70;;;;;;5026760;28;1443;-70
2023/11/27 12:51:44;;;;;;;;;;;21.30;59.80;;;;;;5016266;28;1496;-70
2023/11/27 12:54:18;;;;;;;;;;;21.30;59.80;;;;;;5030947;28;1239;-70
2023/11/27 12:56:47;;;;;;;;;;;21.30;59.90;;;;;;5027564;28;1304;-71
2023/11/27 12:59:15;;;;;;;;;;;21.30;59.90;;;;;;5020877;28;1334;-70
2023/11/27 13:01:52;;;;;;;;;;;21.20;59.90;;;;;;5025942;28;1171;-70
2023/11/27 13:04:21;;;;;;;;;;;21.20;59.90;;;;;;5029030;28;1977;-69
2023/11/27 13:06:47;;;;;;;;;;;21.20;60.00;;;;;;4999703;28;1317;-70
2023/11/27 13:09:12;;;;;;;;;;;21.20;60.10;;;;;;5027069;28;1472;-69
2023/11/27 13:11:38;;;;;;;;;;;21.10;60.00;;;;;;5024585;28;1372;-69
2023/11/27 13:14:07;;;;;;;;;;;21.10;60.20;;;;;;5028127;28;1133;-69
2023/11/27 13:16:33;;;;;;;;;;;21.10;61.00;;;;;;5028211;28;1276;-71
2023/11/27 13:18:59;;;;;;;;;;;21.10;60.30;;;;;;5006789;28;1249;-69
2023/11/27 13:21:32;;;;;;;;;;;21.10;60.30;;;;;;5029608;28;1421;-70
2023/11/27 13:24:02;;;;;;;;;;;21.00;60.30;;;;;;5029250;28;1906;-70
2023/11/27 13:26:34;;;;;;;;;;;21.00;60.30;;;;;;5031315;28;1529;-70
2023/11/27 13:29:00;;;;;;;;;;;21.00;60.30;;;;;;5011703;28;5334;-70
2023/11/27 13:31:26;;;;;;;;;;;21.00;60.40;;;;;;5008980;28;1911;-70
2023/11/27 13:33:51;;;;;;;;;;;21.00;60.40;;;;;;5026586;28;1871;-69
2023/11/27 13:36:20;;;;;;;;;;;20.90;60.40;;;;;;5024746;28;1293;-69
2023/11/27 13:38:49;;;;;;;;;;;20.90;60.50;;;;;;5009198;28;1613;-69
2023/11/27 13:41:14;;;;;;;;;;;20.90;60.60;;;;;;5026446;28;1238;-69
2023/11/27 13:43:40;;;;;;;;;;;20.90;60.70;;;;;;5025339;28;1981;-70
2023/11/27 13:46:08;;;;;;;;;;;20.90;60.70;;;;;;5011418;28;1736;-70
2023/11/27 13:48:35;;;;;;;;;;;20.90;60.70;;;;;;5004953;28;1584;-69
2023/11/27 13:51:12;;;;;;;;;;;20.80;60.70;;;;;;5022847;28;1558;-69
2023/11/27 13:53:38;;;;;;;;;;;20.90;60.80;;;;;;5023964;28;1455;-70
2023/11/27 13:56:09;;;;;;;;;;;20.80;60.80;;;;;;5004546;28;1383;-70
2023/11/27 13:58:35;;;;;;;;;;;20.80;60.90;;;;;;5020861;28;1337;-70
2023/11/27 14:01:09;;;;;;;;;;;20.80;60.90;;;;;;5025245;28;1475;-69
2023/11/27 14:03:35;;;;;;;;;;;20.80;61.00;;;;;;5011649;28;1890;-70
2023/11/27 14:06:15;;;;;;;;;;;20.80;61.10;;;;;;5009148;28;1446;-70
2023/11/27 14:08:45;;;;;;;;;;;20.70;61.10;;;;;;5022547;28;1352;-69
2023/11/27 14:11:26;;;;;;;;;;;20.70;61.10;;;;;;5008589;28;1962;-71
2023/11/27 14:13:54;;;;;;;;;;;20.70;61.10;;;;;;5023188;28;1253;-69
2023/11/27 14:16:20;;;;;;;;;;;20.70;61.10;;;;;;5021579;28;1288;-69
2023/11/27 14:24:27;;;;;;;;;;;20.70;61.20;;;;;;5011988;28;4691;-70
2023/11/27 14:29:27;;;;;;;;;;;20.70;61.30;;;;;;5023391;28;1365;-70
2023/11/27 14:31:54;;;;;;;;;;;20.70;61.30;;;;;;5022590;28;1364;-69
2023/11/27 14:34:28;;;;;;;;;;;20.70;61.30;;;;;;5023582;28;1252;-69
2023/11/27 14:36:57;;;;;;;;;;;20.60;61.40;;;;;;5024111;28;1258;-69
2023/11/27 14:39:24;;;;;;;;;;;20.70;62.20;;;;;;5008630;28;1664;-70
2023/11/27 14:41:52;;;;;;;;;;;20.60;61.40;;;;;;5021456;28;1167;-69
2023/11/27 14:44:18;;;;;;;;;;;20.60;61.40;;;;;;5004539;28;1999;-69